sensor_id;sensor_type;location;lat;lon;timestamp;P1;durP1;ratioP1;P2;durP2;ratioP2
17564;SDS011;62994;52.126;5.596;2023-08-07T00:01:05;1.90;;;1.05;;
17564;SDS011;62994;52.126;5.596;2023-08-07T00:03:32;2.90;;;1.13;;
17564;SDS011;62994;52.126;5.596;2023-08-07T00:06:00;1.00;;;0.95;;
17564;SDS011;62994;52.126;5.596;2023-08-07T00:08:29;1.73;;;1.20;;
17564;SDS011;62994;52.126;5.596;2023-08-07T00:11:03;1.60;;;1.20;;
17564;SDS011;62994;52.126;5.596;2023-08-07T00:13:31;6.57;;;1.40;;
17564;SDS011;62994;52.126;5.596;2023-08-07T00:16:04;2.03;;;1.30;;
17564;SDS011;62994;52.126;5.596;2023-08-07T00:18:31;4.80;;;1.45;;
17564;SDS011;62994;52.126;5.596;2023-08-07T00:20:59;3.80;;;1.20;;
17564;SDS011;62994;52.126;5.596;2023-08-07T00:23:26;3.10;;;1.30;;
17564;SDS011;62994;52.126;5.596;2023-08-07T00:25:55;3.22;;;1.52;;
17564;SDS011;62994;52.126;5.596;2023-08-07T00:28:22;3.05;;;1.23;;
17564;SDS011;62994;52.126;5.596;2023-08-07T00:30:49;5.47;;;1.20;;
17564;SDS011;62994;52.126;5.596;2023-08-07T00:33:15;2.55;;;1.17;;
17564;SDS011;62994;52.126;5.596;2023-08-07T00:35:43;2.67;;;1.52;;
17564;SDS011;62994;52.126;5.596;2023-08-07T00:38:10;4.47;;;1.15;;
17564;SDS011;62994;52.126;5.596;2023-08-07T00:40:49;6.43;;;1.75;;
17564;SDS011;62994;52.126;5.596;2023-08-07T00:43:21;3.03;;;1.42;;
17564;SDS011;62994;52.126;5.596;2023-08-07T00:45:48;4.10;;;1.88;;
17564;SDS011;62994;52.126;5.596;2023-08-07T00:48:15;4.68;;;1.65;;
17564;SDS011;62994;52.126;5.596;2023-08-07T00:50:49;3.22;;;1.58;;
17564;SDS011;62994;52.126;5.596;2023-08-07T00:53:18;4.47;;;1.30;;
17564;SDS011;62994;52.126;5.596;2023-08-07T00:55:48;3.90;;;1.50;;
17564;SDS011;62994;52.126;5.596;2023-08-07T00:58:17;4.90;;;1.38;;
17564;SDS011;62994;52.126;5.596;2023-08-07T01:00:46;6.18;;;1.67;;
17564;SDS011;62994;52.126;5.596;2023-08-07T01:03:18;5.10;;;1.40;;
17564;SDS011;62994;52.126;5.596;2023-08-07T01:05:46;2.08;;;1.33;;
17564;SDS011;62994;52.126;5.596;2023-08-07T01:08:13;2.38;;;1.45;;
17564;SDS011;62994;52.126;5.596;2023-08-07T01:10:45;2.67;;;1.58;;
17564;SDS011;62994;52.126;5.596;2023-08-07T01:13:59;3.03;;;1.42;;
17564;SDS011;62994;52.126;5.596;2023-08-07T01:16:35;4.50;;;1.80;;
17564;SDS011;62994;52.126;5.596;2023-08-07T01:19:19;3.83;;;1.83;;
17564;SDS011;62994;52.126;5.596;2023-08-07T01:21:54;4.55;;;1.83;;
17564;SDS011;62994;52.126;5.596;2023-08-07T01:24:31;2.75;;;1.95;;
17564;SDS011;62994;52.126;5.596;2023-08-07T01:27:00;9.30;;;1.88;;
17564;SDS011;62994;52.126;5.596;2023-08-07T01:29:39;6.90;;;2.15;;
17564;SDS011;62994;52.126;5.596;2023-08-07T01:32:14;3.00;;;1.80;;
17564;SDS011;62994;52.126;5.596;2023-08-07T01:34:48;6.05;;;2.15;;
17564;SDS011;62994;52.126;5.596;2023-08-07T01:37:20;4.13;;;1.77;;
17564;SDS011;62994;52.126;5.596;2023-08-07T01:39:54;6.68;;;2.40;;
17564;SDS011;62994;52.126;5.596;2023-08-07T01:42:22;4.78;;;1.65;;
17564;SDS011;62994;52.126;5.596;2023-08-07T01:44:51;4.00;;;1.92;;
17564;SDS011;62994;52.126;5.596;2023-08-07T01:47:18;9.95;;;2.05;;
17564;SDS011;62994;52.126;5.596;2023-08-07T01:49:45;4.22;;;2.10;;
17564;SDS011;62994;52.126;5.596;2023-08-07T01:52:20;3.97;;;2.00;;
17564;SDS011;62994;52.126;5.596;2023-08-07T01:54:47;5.38;;;2.35;;
17564;SDS011;62994;52.126;5.596;2023-08-07T01:57:20;6.72;;;2.35;;
17564;SDS011;62994;52.126;5.596;2023-08-07T01:59:47;4.32;;;2.17;;
17564;SDS011;62994;52.126;5.596;2023-08-07T02:02:14;6.82;;;2.35;;
17564;SDS011;62994;52.126;5.596;2023-08-07T02:04:43;10.25;;;2.63;;
17564;SDS011;62994;52.126;5.596;2023-08-07T02:07:15;11.70;;;2.47;;
17564;SDS011;62994;52.126;5.596;2023-08-07T02:09:43;4.90;;;2.38;;
17564;SDS011;62994;52.126;5.596;2023-08-07T02:12:10;6.40;;;2.05;;
17564;SDS011;62994;52.126;5.596;2023-08-07T02:14:42;3.13;;;1.98;;
17564;SDS011;62994;52.126;5.596;2023-08-07T02:17:09;6.15;;;1.98;;
17564;SDS011;62994;52.126;5.596;2023-08-07T02:19:36;6.60;;;2.17;;
17564;SDS011;62994;52.126;5.596;2023-08-07T02:22:03;5.22;;;2.10;;
17564;SDS011;62994;52.126;5.596;2023-08-07T02:24:33;4.78;;;2.47;;
17564;SDS011;62994;52.126;5.596;2023-08-07T02:27:01;6.63;;;2.28;;
17564;SDS011;62994;52.126;5.596;2023-08-07T02:29:33;3.47;;;2.33;;
17564;SDS011;62994;52.126;5.596;2023-08-07T02:32:01;5.93;;;2.45;;
17564;SDS011;62994;52.126;5.596;2023-08-07T02:34:28;7.95;;;2.78;;
17564;SDS011;62994;52.126;5.596;2023-08-07T02:36:58;3.80;;;2.03;;
17564;SDS011;62994;52.126;5.596;2023-08-07T02:39:30;4.65;;;1.90;;
17564;SDS011;62994;52.126;5.596;2023-08-07T02:42:02;6.68;;;1.95;;
17564;SDS011;62994;52.126;5.596;2023-08-07T02:44:30;5.75;;;2.30;;
17564;SDS011;62994;52.126;5.596;2023-08-07T02:47:03;3.65;;;2.05;;
17564;SDS011;62994;52.126;5.596;2023-08-07T02:49:30;10.35;;;2.25;;
17564;SDS011;62994;52.126;5.596;2023-08-07T02:51:57;6.20;;;2.03;;
17564;SDS011;62994;52.126;5.596;2023-08-07T02:54:26;6.82;;;2.60;;
17564;SDS011;62994;52.126;5.596;2023-08-07T02:56:53;4.65;;;1.92;;
17564;SDS011;62994;52.126;5.596;2023-08-07T02:59:28;4.70;;;2.60;;
17564;SDS011;62994;52.126;5.596;2023-08-07T03:01:57;5.38;;;2.25;;
17564;SDS011;62994;52.126;5.596;2023-08-07T03:04:24;5.82;;;2.10;;
17564;SDS011;62994;52.126;5.596;2023-08-07T03:06:52;5.05;;;2.22;;
17564;SDS011;62994;52.126;5.596;2023-08-07T03:09:19;5.95;;;2.45;;
17564;SDS011;62994;52.126;5.596;2023-08-07T03:11:46;4.45;;;2.10;;
17564;SDS011;62994;52.126;5.596;2023-08-07T03:14:19;5.65;;;2.17;;
17564;SDS011;62994;52.126;5.596;2023-08-07T03:16:49;5.47;;;2.00;;
17564;SDS011;62994;52.126;5.596;2023-08-07T03:19:16;5.72;;;1.90;;
17564;SDS011;62994;52.126;5.596;2023-08-07T03:21:47;4.80;;;2.20;;
17564;SDS011;62994;52.126;5.596;2023-08-07T03:24:20;6.50;;;1.92;;
17564;SDS011;62994;52.126;5.596;2023-08-07T03:26:47;6.60;;;2.40;;
17564;SDS011;62994;52.126;5.596;2023-08-07T03:29:19;7.88;;;1.90;;
17564;SDS011;62994;52.126;5.596;2023-08-07T03:32:04;5.07;;;2.10;;
17564;SDS011;62994;52.126;5.596;2023-08-07T03:34:31;10.02;;;2.58;;
17564;SDS011;62994;52.126;5.596;2023-08-07T03:36:58;5.18;;;2.00;;
17564;SDS011;62994;52.126;5.596;2023-08-07T03:39:30;2.97;;;1.80;;
17564;SDS011;62994;52.126;5.596;2023-08-07T03:42:01;5.22;;;2.28;;
17564;SDS011;62994;52.126;5.596;2023-08-07T03:44:28;3.83;;;1.80;;
17564;SDS011;62994;52.126;5.596;2023-08-07T03:46:57;3.50;;;1.90;;
17564;SDS011;62994;52.126;5.596;2023-08-07T03:49:24;4.03;;;2.22;;
17564;SDS011;62994;52.126;5.596;2023-08-07T03:51:51;5.85;;;2.22;;
17564;SDS011;62994;52.126;5.596;2023-08-07T03:54:18;3.40;;;1.75;;
17564;SDS011;62994;52.126;5.596;2023-08-07T03:56:53;5.15;;;1.83;;
17564;SDS011;62994;52.126;5.596;2023-08-07T03:59:23;1.75;;;1.50;;
17564;SDS011;62994;52.126;5.596;2023-08-07T04:01:57;2.35;;;1.42;;
17564;SDS011;62994;52.126;5.596;2023-08-07T04:04:37;4.55;;;1.70;;
17564;SDS011;62994;52.126;5.596;2023-08-07T04:07:11;3.80;;;1.95;;
17564;SDS011;62994;52.126;5.596;2023-08-07T04:09:40;4.88;;;1.98;;
17564;SDS011;62994;52.126;5.596;2023-08-07T04:12:13;5.22;;;1.63;;
17564;SDS011;62994;52.126;5.596;2023-08-07T04:14:55;3.47;;;1.70;;
17564;SDS011;62994;52.126;5.596;2023-08-07T04:17:23;5.35;;;1.88;;
17564;SDS011;62994;52.126;5.596;2023-08-07T04:19:57;3.85;;;1.73;;
17564;SDS011;62994;52.126;5.596;2023-08-07T04:22:29;4.22;;;2.10;;
17564;SDS011;62994;52.126;5.596;2023-08-07T04:25:02;4.32;;;1.92;;
17564;SDS011;62994;52.126;5.596;2023-08-07T04:27:30;4.70;;;2.17;;
17564;SDS011;62994;52.126;5.596;2023-08-07T04:29:57;3.22;;;1.67;;
17564;SDS011;62994;52.126;5.596;2023-08-07T04:32:34;2.55;;;2.10;;
17564;SDS011;62994;52.126;5.596;2023-08-07T04:35:01;4.72;;;2.03;;
17564;SDS011;62994;52.126;5.596;2023-08-07T04:37:29;5.32;;;2.25;;
17564;SDS011;62994;52.126;5.596;2023-08-07T04:39:56;5.63;;;2.35;;
17564;SDS011;62994;52.126;5.596;2023-08-07T04:42:26;2.53;;;2.30;;
17564;SDS011;62994;52.126;5.596;2023-08-07T04:44:57;6.10;;;2.25;;
17564;SDS011;62994;52.126;5.596;2023-08-07T04:47:30;6.97;;;2.30;;
17564;SDS011;62994;52.126;5.596;2023-08-07T04:50:04;4.93;;;2.60;;
17564;SDS011;62994;52.126;5.596;2023-08-07T04:52:36;6.38;;;2.25;;
17564;SDS011;62994;52.126;5.596;2023-08-07T04:55:04;7.63;;;2.30;;
17564;SDS011;62994;52.126;5.596;2023-08-07T04:57:31;5.38;;;2.30;;
17564;SDS011;62994;52.126;5.596;2023-08-07T04:59:58;2.42;;;1.70;;
17564;SDS011;62994;52.126;5.596;2023-08-07T05:02:26;5.38;;;2.72;;
17564;SDS011;62994;52.126;5.596;2023-08-07T05:05:01;5.38;;;2.17;;
17564;SDS011;62994;52.126;5.596;2023-08-07T05:07:34;8.10;;;2.58;;
17564;SDS011;62994;52.126;5.596;2023-08-07T05:10:07;7.50;;;2.30;;
17564;SDS011;62994;52.126;5.596;2023-08-07T05:12:41;8.95;;;2.58;;
17564;SDS011;62994;52.126;5.596;2023-08-07T05:15:13;4.75;;;2.50;;
17564;SDS011;62994;52.126;5.596;2023-08-07T05:17:40;5.75;;;2.15;;
17564;SDS011;62994;52.126;5.596;2023-08-07T05:20:09;5.47;;;2.60;;
17564;SDS011;62994;52.126;5.596;2023-08-07T05:22:43;8.25;;;2.78;;
17564;SDS011;62994;52.126;5.596;2023-08-07T05:25:10;6.72;;;2.20;;
17564;SDS011;62994;52.126;5.596;2023-08-07T05:27:40;4.18;;;2.22;;
17564;SDS011;62994;52.126;5.596;2023-08-07T05:30:08;8.48;;;2.65;;
17564;SDS011;62994;52.126;5.596;2023-08-07T05:32:35;2.50;;;1.70;;
17564;SDS011;62994;52.126;5.596;2023-08-07T05:35:04;2.42;;;2.00;;
17564;SDS011;62994;52.126;5.596;2023-08-07T05:37:33;5.70;;;2.13;;
17564;SDS011;62994;52.126;5.596;2023-08-07T05:40:01;3.30;;;1.83;;
17564;SDS011;62994;52.126;5.596;2023-08-07T05:42:29;5.72;;;2.17;;
17564;SDS011;62994;52.126;5.596;2023-08-07T05:44:58;4.47;;;2.40;;
17564;SDS011;62994;52.126;5.596;2023-08-07T05:47:25;6.95;;;2.50;;
17564;SDS011;62994;52.126;5.596;2023-08-07T05:49:52;4.95;;;2.13;;
17564;SDS011;62994;52.126;5.596;2023-08-07T05:52:19;7.63;;;2.70;;
17564;SDS011;62994;52.126;5.596;2023-08-07T05:54:48;3.60;;;2.20;;
17564;SDS011;62994;52.126;5.596;2023-08-07T05:57:15;5.70;;;2.70;;
17564;SDS011;62994;52.126;5.596;2023-08-07T05:59:52;5.28;;;2.45;;
17564;SDS011;62994;52.126;5.596;2023-08-07T06:02:19;4.65;;;2.65;;
17564;SDS011;62994;52.126;5.596;2023-08-07T06:04:46;6.38;;;2.60;;
17564;SDS011;62994;52.126;5.596;2023-08-07T06:07:13;6.75;;;2.72;;
17564;SDS011;62994;52.126;5.596;2023-08-07T06:09:41;4.97;;;2.83;;
17564;SDS011;62994;52.126;5.596;2023-08-07T06:12:18;5.50;;;2.80;;
17564;SDS011;62994;52.126;5.596;2023-08-07T06:14:45;5.53;;;2.92;;
17564;SDS011;62994;52.126;5.596;2023-08-07T06:17:16;9.63;;;2.97;;
17564;SDS011;62994;52.126;5.596;2023-08-07T06:19:43;5.78;;;2.45;;
17564;SDS011;62994;52.126;5.596;2023-08-07T06:22:10;4.10;;;2.65;;
17564;SDS011;62994;52.126;5.596;2023-08-07T06:24:37;12.45;;;2.53;;
17564;SDS011;62994;52.126;5.596;2023-08-07T06:27:06;4.60;;;2.40;;
17564;SDS011;62994;52.126;5.596;2023-08-07T06:29:39;6.90;;;2.80;;
17564;SDS011;62994;52.126;5.596;2023-08-07T06:32:08;6.22;;;2.55;;
17564;SDS011;62994;52.126;5.596;2023-08-07T06:34:36;4.70;;;2.30;;
17564;SDS011;62994;52.126;5.596;2023-08-07T06:37:05;5.68;;;2.25;;
17564;SDS011;62994;52.126;5.596;2023-08-07T06:39:38;4.90;;;2.35;;
17564;SDS011;62994;52.126;5.596;2023-08-07T06:42:07;12.70;;;2.88;;
17564;SDS011;62994;52.126;5.596;2023-08-07T06:44:34;2.28;;;2.05;;
17564;SDS011;62994;52.126;5.596;2023-08-07T06:47:03;4.45;;;2.40;;
17564;SDS011;62994;52.126;5.596;2023-08-07T06:49:30;8.30;;;2.90;;
17564;SDS011;62994;52.126;5.596;2023-08-07T06:51:58;5.28;;;2.78;;
17564;SDS011;62994;52.126;5.596;2023-08-07T06:54:27;7.43;;;2.50;;
17564;SDS011;62994;52.126;5.596;2023-08-07T06:56:57;7.95;;;2.60;;
17564;SDS011;62994;52.126;5.596;2023-08-07T06:59:28;10.50;;;2.67;;
17564;SDS011;62994;52.126;5.596;2023-08-07T07:01:55;6.60;;;2.80;;
17564;SDS011;62994;52.126;5.596;2023-08-07T07:04:32;8.23;;;2.80;;
17564;SDS011;62994;52.126;5.596;2023-08-07T07:07:01;4.25;;;2.72;;
17564;SDS011;62994;52.126;5.596;2023-08-07T07:09:31;10.32;;;2.63;;
17564;SDS011;62994;52.126;5.596;2023-08-07T07:11:58;5.35;;;2.28;;
17564;SDS011;62994;52.126;5.596;2023-08-07T07:14:35;6.75;;;2.42;;
17564;SDS011;62994;52.126;5.596;2023-08-07T07:17:03;4.07;;;2.72;;
17564;SDS011;62994;52.126;5.596;2023-08-07T07:19:39;8.32;;;2.35;;
17564;SDS011;62994;52.126;5.596;2023-08-07T07:22:06;4.60;;;2.13;;
17564;SDS011;62994;52.126;5.596;2023-08-07T07:24:38;4.85;;;2.05;;
17564;SDS011;62994;52.126;5.596;2023-08-07T07:27:12;7.30;;;2.33;;
17564;SDS011;62994;52.126;5.596;2023-08-07T07:29:40;11.20;;;2.42;;
17564;SDS011;62994;52.126;5.596;2023-08-07T07:32:07;8.68;;;3.30;;
17564;SDS011;62994;52.126;5.596;2023-08-07T07:34:34;6.95;;;2.50;;
17564;SDS011;62994;52.126;5.596;2023-08-07T07:37:02;9.52;;;2.58;;
17564;SDS011;62994;52.126;5.596;2023-08-07T07:39:31;3.50;;;2.33;;
17564;SDS011;62994;52.126;5.596;2023-08-07T07:41:58;10.73;;;3.00;;
17564;SDS011;62994;52.126;5.596;2023-08-07T07:44:30;5.35;;;2.20;;
17564;SDS011;62994;52.126;5.596;2023-08-07T07:47:00;6.35;;;2.20;;
17564;SDS011;62994;52.126;5.596;2023-08-07T07:49:32;6.03;;;2.45;;
17564;SDS011;62994;52.126;5.596;2023-08-07T07:51:59;5.28;;;2.20;;
17564;SDS011;62994;52.126;5.596;2023-08-07T07:54:31;3.83;;;2.45;;
17564;SDS011;62994;52.126;5.596;2023-08-07T07:57:06;5.82;;;2.25;;
17564;SDS011;62994;52.126;5.596;2023-08-07T07:59:33;4.22;;;2.28;;
17564;SDS011;62994;52.126;5.596;2023-08-07T08:02:08;5.25;;;2.65;;
17564;SDS011;62994;52.126;5.596;2023-08-07T08:04:36;2.15;;;1.98;;
17564;SDS011;62994;52.126;5.596;2023-08-07T08:07:10;4.90;;;2.25;;
17564;SDS011;62994;52.126;5.596;2023-08-07T08:09:37;10.32;;;2.85;;
17564;SDS011;62994;52.126;5.596;2023-08-07T08:12:06;5.32;;;2.35;;
17564;SDS011;62994;52.126;5.596;2023-08-07T08:14:34;2.50;;;2.30;;
17564;SDS011;62994;52.126;5.596;2023-08-07T08:17:08;5.80;;;2.30;;
17564;SDS011;62994;52.126;5.596;2023-08-07T08:19:35;3.47;;;2.03;;
17564;SDS011;62994;52.126;5.596;2023-08-07T08:22:03;3.03;;;1.95;;
17564;SDS011;62994;52.126;5.596;2023-08-07T08:24:30;6.00;;;2.50;;
17564;SDS011;62994;52.126;5.596;2023-08-07T08:27:02;5.20;;;2.38;;
17564;SDS011;62994;52.126;5.596;2023-08-07T08:29:30;5.95;;;2.33;;
17564;SDS011;62994;52.126;5.596;2023-08-07T08:31:57;3.42;;;2.20;;
17564;SDS011;62994;52.126;5.596;2023-08-07T08:34:30;4.72;;;2.25;;
17564;SDS011;62994;52.126;5.596;2023-08-07T08:36:57;3.60;;;2.42;;
17564;SDS011;62994;52.126;5.596;2023-08-07T08:39:25;5.68;;;2.17;;
17564;SDS011;62994;52.126;5.596;2023-08-07T08:41:52;5.47;;;2.75;;
17564;SDS011;62994;52.126;5.596;2023-08-07T08:44:21;6.38;;;2.60;;
17564;SDS011;62994;52.126;5.596;2023-08-07T08:46:55;5.85;;;3.08;;
17564;SDS011;62994;52.126;5.596;2023-08-07T08:49:28;4.45;;;2.40;;
17564;SDS011;62994;52.126;5.596;2023-08-07T08:51:59;6.72;;;2.92;;
17564;SDS011;62994;52.126;5.596;2023-08-07T08:54:26;11.27;;;2.97;;
17564;SDS011;62994;52.126;5.596;2023-08-07T08:56:55;6.28;;;2.63;;
17564;SDS011;62994;52.126;5.596;2023-08-07T08:59:24;8.18;;;2.70;;
17564;SDS011;62994;52.126;5.596;2023-08-07T09:01:55;7.15;;;2.63;;
17564;SDS011;62994;52.126;5.596;2023-08-07T09:04:22;7.97;;;2.40;;
17564;SDS011;62994;52.126;5.596;2023-08-07T09:07:01;5.85;;;2.35;;
17564;SDS011;62994;52.126;5.596;2023-08-07T09:09:37;5.65;;;2.40;;
17564;SDS011;62994;52.126;5.596;2023-08-07T09:12:08;6.95;;;2.10;;
17564;SDS011;62994;52.126;5.596;2023-08-07T09:14:46;5.05;;;2.10;;
17564;SDS011;62994;52.126;5.596;2023-08-07T09:17:26;6.03;;;2.67;;
17564;SDS011;62994;52.126;5.596;2023-08-07T09:20:00;2.35;;;1.90;;
17564;SDS011;62994;52.126;5.596;2023-08-07T09:22:31;4.82;;;2.20;;
17564;SDS011;62994;52.126;5.596;2023-08-07T09:24:58;4.25;;;2.40;;
17564;SDS011;62994;52.126;5.596;2023-08-07T09:27:25;2.97;;;2.10;;
17564;SDS011;62994;52.126;5.596;2023-08-07T09:29:55;5.10;;;2.40;;
17564;SDS011;62994;52.126;5.596;2023-08-07T09:32:24;9.80;;;2.33;;
17564;SDS011;62994;52.126;5.596;2023-08-07T09:34:51;4.90;;;2.20;;
17564;SDS011;62994;52.126;5.596;2023-08-07T09:37:18;7.03;;;2.60;;
17564;SDS011;62994;52.126;5.596;2023-08-07T09:39:51;6.15;;;2.10;;
17564;SDS011;62994;52.126;5.596;2023-08-07T09:42:19;4.90;;;2.40;;
17564;SDS011;62994;52.126;5.596;2023-08-07T09:44:46;4.47;;;1.98;;
17564;SDS011;62994;52.126;5.596;2023-08-07T09:47:14;3.50;;;1.95;;
17564;SDS011;62994;52.126;5.596;2023-08-07T09:49:43;3.05;;;2.10;;
17564;SDS011;62994;52.126;5.596;2023-08-07T09:52:11;3.78;;;2.00;;
17564;SDS011;62994;52.126;5.596;2023-08-07T09:54:46;4.80;;;1.80;;
17564;SDS011;62994;52.126;5.596;2023-08-07T09:57:15;6.78;;;1.83;;
17564;SDS011;62994;52.126;5.596;2023-08-07T09:59:45;4.60;;;2.05;;
17564;SDS011;62994;52.126;5.596;2023-08-07T10:02:16;5.03;;;1.73;;
17564;SDS011;62994;52.126;5.596;2023-08-07T10:04:45;4.68;;;2.17;;
17564;SDS011;62994;52.126;5.596;2023-08-07T10:07:13;2.88;;;1.92;;
17564;SDS011;62994;52.126;5.596;2023-08-07T10:09:45;4.20;;;1.90;;
17564;SDS011;62994;52.126;5.596;2023-08-07T10:12:17;3.15;;;1.80;;
17564;SDS011;62994;52.126;5.596;2023-08-07T10:14:45;7.80;;;1.85;;
17564;SDS011;62994;52.126;5.596;2023-08-07T10:17:13;4.07;;;2.15;;
17564;SDS011;62994;52.126;5.596;2023-08-07T10:19:40;6.32;;;2.28;;
17564;SDS011;62994;52.126;5.596;2023-08-07T10:22:13;2.17;;;1.83;;
17564;SDS011;62994;52.126;5.596;2023-08-07T10:24:42;6.22;;;2.28;;
17564;SDS011;62994;52.126;5.596;2023-08-07T10:27:10;6.18;;;2.15;;
17564;SDS011;62994;52.126;5.596;2023-08-07T10:29:39;6.38;;;2.10;;
17564;SDS011;62994;52.126;5.596;2023-08-07T10:32:13;9.55;;;2.20;;
17564;SDS011;62994;52.126;5.596;2023-08-07T10:34:46;5.88;;;2.28;;
17564;SDS011;62994;52.126;5.596;2023-08-07T10:40:05;5.82;;;1.90;;
17564;SDS011;62994;52.126;5.596;2023-08-07T10:45:25;5.63;;;2.22;;
17564;SDS011;62994;52.126;5.596;2023-08-07T10:48:01;7.40;;;2.10;;
17564;SDS011;62994;52.126;5.596;2023-08-07T10:50:29;4.40;;;1.83;;
17564;SDS011;62994;52.126;5.596;2023-08-07T10:52:59;3.95;;;1.95;;
17564;SDS011;62994;52.126;5.596;2023-08-07T10:55:30;3.47;;;1.70;;
17564;SDS011;62994;52.126;5.596;2023-08-07T10:58:08;3.05;;;1.85;;
17564;SDS011;62994;52.126;5.596;2023-08-07T11:00:51;2.72;;;2.08;;
17564;SDS011;62994;52.126;5.596;2023-08-07T11:03:45;8.23;;;2.28;;
17564;SDS011;62994;52.126;5.596;2023-08-07T11:06:17;3.33;;;1.95;;
17564;SDS011;62994;52.126;5.596;2023-08-07T11:08:57;6.00;;;2.20;;
17564;SDS011;62994;52.126;5.596;2023-08-07T11:11:25;7.63;;;2.03;;
17564;SDS011;62994;52.126;5.596;2023-08-07T11:13:53;4.97;;;2.15;;
17564;SDS011;62994;52.126;5.596;2023-08-07T11:16:49;3.53;;;1.90;;
17564;SDS011;62994;52.126;5.596;2023-08-07T11:22:29;3.53;;;1.98;;
17564;SDS011;62994;52.126;5.596;2023-08-07T11:24:57;4.00;;;2.10;;
17564;SDS011;62994;52.126;5.596;2023-08-07T11:27:25;2.50;;;1.90;;
17564;SDS011;62994;52.126;5.596;2023-08-07T11:29:55;3.35;;;2.00;;
17564;SDS011;62994;52.126;5.596;2023-08-07T11:32:26;2.58;;;1.80;;
17564;SDS011;62994;52.126;5.596;2023-08-07T11:34:54;4.80;;;1.60;;
17564;SDS011;62994;52.126;5.596;2023-08-07T11:37:23;4.55;;;1.67;;
17564;SDS011;62994;52.126;5.596;2023-08-07T11:40:00;5.45;;;2.03;;
17564;SDS011;62994;52.126;5.596;2023-08-07T11:42:31;4.22;;;1.83;;
17564;SDS011;62994;52.126;5.596;2023-08-07T11:45:01;6.05;;;2.05;;
17564;SDS011;62994;52.126;5.596;2023-08-07T11:47:36;4.70;;;2.17;;
17564;SDS011;62994;52.126;5.596;2023-08-07T11:50:09;3.58;;;2.00;;
17564;SDS011;62994;52.126;5.596;2023-08-07T11:52:46;3.05;;;2.10;;
17564;SDS011;62994;52.126;5.596;2023-08-07T11:55:16;4.10;;;2.30;;
17564;SDS011;62994;52.126;5.596;2023-08-07T11:57:45;5.72;;;2.45;;
17564;SDS011;62994;52.126;5.596;2023-08-07T12:00:18;3.55;;;2.08;;
17564;SDS011;62994;52.126;5.596;2023-08-07T12:02:55;7.15;;;2.15;;
17564;SDS011;62994;52.126;5.596;2023-08-07T12:05:24;6.93;;;2.20;;
17564;SDS011;62994;52.126;5.596;2023-08-07T12:07:59;2.00;;;1.70;;
17564;SDS011;62994;52.126;5.596;2023-08-07T12:10:27;6.15;;;2.22;;
17564;SDS011;62994;52.126;5.596;2023-08-07T12:13:00;4.10;;;2.10;;
17564;SDS011;62994;52.126;5.596;2023-08-07T12:15:31;5.38;;;2.38;;
17564;SDS011;62994;52.126;5.596;2023-08-07T12:18:06;2.05;;;1.85;;
17564;SDS011;62994;52.126;5.596;2023-08-07T12:20:38;1.85;;;1.40;;
17564;SDS011;62994;52.126;5.596;2023-08-07T12:23:13;2.97;;;1.42;;
17564;SDS011;62994;52.126;5.596;2023-08-07T12:25:48;3.85;;;1.70;;
17564;SDS011;62994;52.126;5.596;2023-08-07T12:28:18;3.80;;;1.52;;
17564;SDS011;62994;52.126;5.596;2023-08-07T12:30:50;2.85;;;1.63;;
17564;SDS011;62994;52.126;5.596;2023-08-07T12:33:20;5.53;;;2.00;;
17564;SDS011;62994;52.126;5.596;2023-08-07T12:35:47;4.07;;;1.80;;
17564;SDS011;62994;52.126;5.596;2023-08-07T12:38:17;2.00;;;1.65;;
17564;SDS011;62994;52.126;5.596;2023-08-07T12:40:44;1.50;;;1.40;;
17564;SDS011;62994;52.126;5.596;2023-08-07T12:43:17;2.00;;;1.73;;
17564;SDS011;62994;52.126;5.596;2023-08-07T12:45:45;2.35;;;1.45;;
17564;SDS011;62994;52.126;5.596;2023-08-07T12:48:13;4.00;;;2.08;;
17564;SDS011;62994;52.126;5.596;2023-08-07T12:50:47;1.58;;;1.48;;
17564;SDS011;62994;52.126;5.596;2023-08-07T12:53:16;3.45;;;1.30;;
17564;SDS011;62994;52.126;5.596;2023-08-07T12:55:50;1.60;;;1.35;;
17564;SDS011;62994;52.126;5.596;2023-08-07T12:58:18;1.73;;;1.50;;
17564;SDS011;62994;52.126;5.596;2023-08-07T13:00:52;3.88;;;1.25;;
17564;SDS011;62994;52.126;5.596;2023-08-07T13:03:20;3.65;;;1.60;;
17564;SDS011;62994;52.126;5.596;2023-08-07T13:05:50;2.15;;;1.40;;
17564;SDS011;62994;52.126;5.596;2023-08-07T13:08:17;1.50;;;1.40;;
17564;SDS011;62994;52.126;5.596;2023-08-07T13:10:45;1.63;;;1.52;;
17564;SDS011;62994;52.126;5.596;2023-08-07T13:13:13;4.60;;;1.83;;
17564;SDS011;62994;52.126;5.596;2023-08-07T13:15:40;1.95;;;1.30;;
17564;SDS011;62994;52.126;5.596;2023-08-07T13:18:08;2.97;;;1.83;;
17564;SDS011;62994;52.126;5.596;2023-08-07T13:20:42;4.18;;;1.40;;
17564;SDS011;62994;52.126;5.596;2023-08-07T13:23:13;4.05;;;1.80;;
17564;SDS011;62994;52.126;5.596;2023-08-07T13:25:40;3.10;;;1.30;;
17564;SDS011;62994;52.126;5.596;2023-08-07T13:28:14;4.30;;;1.60;;
17564;SDS011;62994;52.126;5.596;2023-08-07T13:30:48;1.95;;;1.27;;
17564;SDS011;62994;52.126;5.596;2023-08-07T13:33:19;2.47;;;1.10;;
17564;SDS011;62994;52.126;5.596;2023-08-07T13:35:46;1.48;;;1.35;;
17564;SDS011;62994;52.126;5.596;2023-08-07T13:38:20;2.88;;;1.60;;
17564;SDS011;62994;52.126;5.596;2023-08-07T13:40:47;2.17;;;1.77;;
17564;SDS011;62994;52.126;5.596;2023-08-07T13:43:16;5.25;;;1.67;;
17564;SDS011;62994;52.126;5.596;2023-08-07T13:45:43;2.97;;;1.40;;
17564;SDS011;62994;52.126;5.596;2023-08-07T13:48:11;5.05;;;1.30;;
17564;SDS011;62994;52.126;5.596;2023-08-07T13:50:39;5.65;;;1.92;;
17564;SDS011;62994;52.126;5.596;2023-08-07T13:53:06;4.70;;;1.67;;
17564;SDS011;62994;52.126;5.596;2023-08-07T13:55:36;5.80;;;2.28;;
17564;SDS011;62994;52.126;5.596;2023-08-07T13:58:04;1.67;;;1.33;;
17564;SDS011;62994;52.126;5.596;2023-08-07T14:00:31;3.60;;;1.55;;
17564;SDS011;62994;52.126;5.596;2023-08-07T14:02:59;2.38;;;1.60;;
17564;SDS011;62994;52.126;5.596;2023-08-07T14:05:26;3.45;;;2.05;;
17564;SDS011;62994;52.126;5.596;2023-08-07T14:07:54;3.97;;;1.70;;
17564;SDS011;62994;52.126;5.596;2023-08-07T14:10:22;6.72;;;1.30;;
17564;SDS011;62994;52.126;5.596;2023-08-07T14:12:51;1.80;;;1.65;;
17564;SDS011;62994;52.126;5.596;2023-08-07T14:15:18;1.95;;;1.77;;
17564;SDS011;62994;52.126;5.596;2023-08-07T14:17:46;1.60;;;1.50;;
17564;SDS011;62994;52.126;5.596;2023-08-07T14:20:13;3.28;;;1.90;;
17564;SDS011;62994;52.126;5.596;2023-08-07T14:22:40;2.60;;;1.20;;
17564;SDS011;62994;52.126;5.596;2023-08-07T14:25:09;1.88;;;1.30;;
17564;SDS011;62994;52.126;5.596;2023-08-07T14:27:36;2.72;;;1.60;;
17564;SDS011;62994;52.126;5.596;2023-08-07T14:30:09;1.38;;;1.27;;
17564;SDS011;62994;52.126;5.596;2023-08-07T14:32:37;2.55;;;1.50;;
17564;SDS011;62994;52.126;5.596;2023-08-07T14:35:12;1.30;;;1.10;;
17564;SDS011;62994;52.126;5.596;2023-08-07T14:37:40;3.03;;;1.48;;
17564;SDS011;62994;52.126;5.596;2023-08-07T14:40:09;1.38;;;1.13;;
17564;SDS011;62994;52.126;5.596;2023-08-07T14:42:37;1.58;;;1.40;;
17564;SDS011;62994;52.126;5.596;2023-08-07T14:45:07;1.60;;;1.50;;
17564;SDS011;62994;52.126;5.596;2023-08-07T14:47:37;1.33;;;1.27;;
17564;SDS011;62994;52.126;5.596;2023-08-07T14:50:05;4.85;;;1.67;;
17564;SDS011;62994;52.126;5.596;2023-08-07T14:52:33;3.47;;;1.40;;
17564;SDS011;62994;52.126;5.596;2023-08-07T14:55:03;3.20;;;1.40;;
17564;SDS011;62994;52.126;5.596;2023-08-07T14:57:31;2.08;;;1.48;;
17564;SDS011;62994;52.126;5.596;2023-08-07T14:59:58;3.55;;;1.30;;
17564;SDS011;62994;52.126;5.596;2023-08-07T15:02:27;2.13;;;1.42;;
17564;SDS011;62994;52.126;5.596;2023-08-07T15:04:55;2.50;;;1.50;;
17564;SDS011;62994;52.126;5.596;2023-08-07T15:07:23;3.58;;;1.70;;
17564;SDS011;62994;52.126;5.596;2023-08-07T15:09:53;3.13;;;1.48;;
17564;SDS011;62994;52.126;5.596;2023-08-07T15:12:26;3.53;;;1.58;;
17564;SDS011;62994;52.126;5.596;2023-08-07T15:14:54;1.95;;;1.45;;